Time;durP1;ratioP1;P1;durP2;ratioP2;P2;SDS_P1;SDS_P2;PMS_P1;PMS_P2;Temp;Humidity;BMP_temperature;BMP_pressure;BME280_temperature;BME280_humidity;BME280_pressure;Samples;Min_cycle;Max_cycle;Signal;HPM_P1;HPM_P2
2024/01/06 00:01:45;;;;;;;3.97;1.80;;;;;;;;;;5060871;28;20099;-78
2024/01/06 00:04:10;;;;;;;3.63;1.52;;;;;;;;;;5079712;28;20039;-76
2024/01/06 00:06:35;;;;;;;2.75;1.48;;;;;;;;;;5070771;28;20067;-77
2024/01/06 00:09:01;;;;;;;2.00;1.40;;;;;;;;;;5054086;28;20028;-76
2024/01/06 00:11:26;;;;;;;4.18;1.52;;;;;;;;;;5050101;28;20044;-81
2024/01/06 00:13:51;;;;;;;0.82;0.82;;;;;;;;;;5065652;28;20021;-76
2024/01/06 00:16:18;;;;;;;1.15;1.05;;;;;;;;;;5061903;28;20098;-78
2024/01/06 00:18:44;;;;;;;1.90;1.27;;;;;;;;;;5055650;28;20391;-78
2024/01/06 00:21:09;;;;;;;1.35;1.08;;;;;;;;;;5039549;28;20024;-76
2024/01/06 00:23:34;;;;;;;0.77;0.77;;;;;;;;;;5054436;28;20036;-76
2024/01/06 00:25:59;;;;;;;1.45;1.02;;;;;;;;;;5060190;28;20080;-76
2024/01/06 00:28:25;;;;;;;4.63;1.63;;;;;;;;;;5046071;28;20048;-77
2024/01/06 00:30:50;;;;;;;1.85;1.33;;;;;;;;;;5056127;28;20124;-76
2024/01/06 00:33:15;;;;;;;1.30;1.20;;;;;;;;;;5063291;28;20115;-78
2024/01/06 00:35:41;;;;;;;1.38;1.27;;;;;;;;;;5062205;28;20104;-78
2024/01/06 00:38:06;;;;;;;1.30;1.20;;;;;;;;;;5059473;28;20033;-76
2024/01/06 00:40:32;;;;;;;3.10;1.08;;;;;;;;;;5058918;28;20055;-76
2024/01/06 00:42:58;;;;;;;3.00;1.48;;;;;;;;;;5063573;28;20542;-77
2024/01/06 00:45:23;;;;;;;0.88;0.82;;;;;;;;;;5064328;28;20104;-80
2024/01/06 00:47:48;;;;;;;1.95;1.10;;;;;;;;;;5061498;28;20037;-78
2024/01/06 00:50:14;;;;;;;1.92;1.30;;;;;;;;;;5059693;28;20090;-78
2024/01/06 00:52:39;;;;;;;4.88;1.30;;;;;;;;;;5064502;28;20024;-77
2024/01/06 00:55:05;;;;;;;2.53;1.52;;;;;;;;;;5055047;28;20465;-78
2024/01/06 00:57:30;;;;;;;1.75;0.80;;;;;;;;;;5055131;28;20068;-77
2024/01/06 00:59:55;;;;;;;3.42;1.27;;;;;;;;;;5063084;28;20055;-77
2024/01/06 01:02:21;;;;;;;2.38;1.45;;;;;;;;;;5057319;28;20118;-79
2024/01/06 01:04:46;;;;;;;1.75;1.13;;;;;;;;;;5063155;28;20119;-77
2024/01/06 01:07:12;;;;;;;1.98;0.93;;;;;;;;;;5058153;28;20115;-77
2024/01/06 01:09:38;;;;;;;1.05;0.95;;;;;;;;;;5053708;28;20017;-78
2024/01/06 01:12:03;;;;;;;1.92;1.13;;;;;;;;;;5058410;28;20025;-77
2024/01/06 01:14:28;;;;;;;0.73;0.73;;;;;;;;;;5061801;28;20044;-77
2024/01/06 01:16:54;;;;;;;0.70;0.70;;;;;;;;;;5057627;28;20047;-77
2024/01/06 01:19:19;;;;;;;1.35;0.93;;;;;;;;;;5061488;28;20033;-76
2024/01/06 01:21:45;;;;;;;0.75;0.75;;;;;;;;;;5064316;28;20077;-77
2024/01/06 01:24:11;;;;;;;0.80;0.80;;;;;;;;;;5064841;28;20056;-77
2024/01/06 01:26:36;;;;;;;0.38;0.38;;;;;;;;;;5057714;28;20054;-77
2024/01/06 01:29:02;;;;;;;1.65;1.25;;;;;;;;;;5037674;28;20036;-76
2024/01/06 01:31:27;;;;;;;0.40;0.40;;;;;;;;;;5063463;28;20032;-77
2024/01/06 01:33:52;;;;;;;3.13;0.70;;;;;;;;;;5039984;28;20048;-76
2024/01/06 01:36:18;;;;;;;1.13;0.57;;;;;;;;;;5057172;28;20025;-75
2024/01/06 01:38:43;;;;;;;4.22;0.90;;;;;;;;;;5060309;28;20083;-77
2024/01/06 01:41:08;;;;;;;3.17;1.02;;;;;;;;;;5069535;28;20406;-77
2024/01/06 01:43:34;;;;;;;8.00;1.08;;;;;;;;;;5064763;28;20446;-77
2024/01/06 01:46:00;;;;;;;0.50;0.50;;;;;;;;;;5056117;28;20025;-77
2024/01/06 01:48:25;;;;;;;2.83;0.85;;;;;;;;;;5063962;28;20023;-77
2024/01/06 01:50:53;;;;;;;2.42;1.08;;;;;;;;;;5058083;28;20102;-77
2024/01/06 01:53:19;;;;;;;0.75;0.55;;;;;;;;;;5055879;28;20083;-77
2024/01/06 01:55:45;;;;;;;1.42;0.85;;;;;;;;;;5069079;28;20075;-77
2024/01/06 01:58:13;;;;;;;0.55;0.55;;;;;;;;;;5055054;28;20463;-77
2024/01/06 02:00:38;;;;;;;0.95;0.70;;;;;;;;;;5061160;28;20032;-78
2024/01/06 02:03:05;;;;;;;0.65;0.65;;;;;;;;;;5060886;28;20032;-77
2024/01/06 02:05:30;;;;;;;0.93;0.57;;;;;;;;;;5055416;28;20032;-77
2024/01/06 02:07:56;;;;;;;1.38;1.05;;;;;;;;;;5046453;28;20078;-77
2024/01/06 02:10:21;;;;;;;1.65;1.15;;;;;;;;;;5052839;28;20039;-77
2024/01/06 02:12:48;;;;;;;0.57;0.57;;;;;;;;;;5067602;28;20028;-77
2024/01/06 02:15:13;;;;;;;0.57;0.57;;;;;;;;;;5055846;28;20553;-78
2024/01/06 02:17:39;;;;;;;0.85;0.82;;;;;;;;;;5076979;28;20068;-77
2024/01/06 02:20:06;;;;;;;1.30;0.73;;;;;;;;;;5089440;28;20021;-76
2024/01/06 02:22:32;;;;;;;0.68;0.68;;;;;;;;;;5065334;28;20028;-77
2024/01/06 02:24:58;;;;;;;0.40;0.40;;;;;;;;;;5066909;28;20440;-77
2024/01/06 02:27:23;;;;;;;5.28;1.15;;;;;;;;;;5057094;28;20037;-77
2024/01/06 02:29:48;;;;;;;2.17;0.80;;;;;;;;;;5060246;28;20021;-77
2024/01/06 02:32:14;;;;;;;0.52;0.45;;;;;;;;;;5068669;28;20024;-77
2024/01/06 02:34:39;;;;;;;0.55;0.52;;;;;;;;;;5059564;28;20103;-77
2024/01/06 02:37:04;;;;;;;11.00;1.65;;;;;;;;;;5057390;28;20187;-77
2024/01/06 02:39:30;;;;;;;0.80;0.80;;;;;;;;;;5053045;28;20440;-77
2024/01/06 02:41:55;;;;;;;0.60;0.60;;;;;;;;;;5069870;28;20027;-77
2024/01/06 02:44:20;;;;;;;0.50;0.50;;;;;;;;;;5076852;28;20040;-77
2024/01/06 02:46:46;;;;;;;0.45;0.45;;;;;;;;;;5061366;28;20111;-77
2024/01/06 02:49:11;;;;;;;0.85;0.75;;;;;;;;;;5065314;28;20525;-77
2024/01/06 02:51:36;;;;;;;0.20;0.20;;;;;;;;;;5061430;28;20110;-77
2024/01/06 02:54:02;;;;;;;0.80;0.50;;;;;;;;;;5074030;28;20035;-77
2024/01/06 02:56:27;;;;;;;1.27;0.75;;;;;;;;;;5051830;28;20020;-77
2024/01/06 02:58:52;;;;;;;0.38;0.38;;;;;;;;;;5056829;28;20091;-77
2024/01/06 03:01:17;;;;;;;1.15;0.52;;;;;;;;;;5053838;28;20124;-77
2024/01/06 03:03:43;;;;;;;0.40;0.40;;;;;;;;;;5066104;28;20031;-77
2024/01/06 03:06:08;;;;;;;0.20;0.20;;;;;;;;;;5061701;28;20124;-77
2024/01/06 03:08:34;;;;;;;1.40;0.75;;;;;;;;;;5074768;28;20100;-77
2024/01/06 03:11:00;;;;;;;0.40;0.40;;;;;;;;;;5057574;28;20434;-76
2024/01/06 03:13:25;;;;;;;0.57;0.57;;;;;;;;;;5068275;28;20478;-77
2024/01/06 03:15:50;;;;;;;1.00;0.43;;;;;;;;;;5064723;28;20025;-77
2024/01/06 03:18:16;;;;;;;0.40;0.40;;;;;;;;;;5064647;28;20040;-77
2024/01/06 03:20:41;;;;;;;2.50;1.27;;;;;;;;;;5061862;28;20078;-77
2024/01/06 03:23:06;;;;;;;6.97;1.05;;;;;;;;;;5064416;28;20090;-77
2024/01/06 03:25:32;;;;;;;0.73;0.73;;;;;;;;;;5052441;28;20031;-78
2024/01/06 03:27:57;;;;;;;1.08;0.60;;;;;;;;;;5053285;28;20495;-77
2024/01/06 03:30:22;;;;;;;0.43;0.43;;;;;;;;;;5058283;28;20012;-77
2024/01/06 03:32:48;;;;;;;1.63;1.08;;;;;;;;;;5074502;28;20566;-77
2024/01/06 03:35:13;;;;;;;0.50;0.50;;;;;;;;;;5066425;28;20409;-78
2024/01/06 03:37:38;;;;;;;1.67;0.70;;;;;;;;;;5065552;28;20047;-77
2024/01/06 03:40:04;;;;;;;4.43;0.80;;;;;;;;;;5062607;28;20033;-77
2024/01/06 03:42:30;;;;;;;3.20;0.50;;;;;;;;;;5064700;28;20029;-77
2024/01/06 03:44:55;;;;;;;0.70;0.70;;;;;;;;;;5085344;28;20036;-77
2024/01/06 03:47:20;;;;;;;2.33;1.50;;;;;;;;;;5082815;28;20028;-77
2024/01/06 03:49:46;;;;;;;2.20;0.75;;;;;;;;;;5073337;28;20498;-77
2024/01/06 03:52:13;;;;;;;0.47;0.40;;;;;;;;;;5077682;28;20074;-77
2024/01/06 03:54:39;;;;;;;0.85;0.60;;;;;;;;;;5076389;28;20020;-77
2024/01/06 03:57:04;;;;;;;0.52;0.52;;;;;;;;;;5069986;28;20032;-76
2024/01/06 03:59:29;;;;;;;0.88;0.70;;;;;;;;;;5057925;28;20029;-77
2024/01/06 04:01:55;;;;;;;0.47;0.47;;;;;;;;;;5060060;28;20028;-77
2024/01/06 04:04:20;;;;;;;1.30;1.05;;;;;;;;;;5047288;28;20059;-77
2024/01/06 04:06:45;;;;;;;0.43;0.43;;;;;;;;;;5060518;28;20044;-77
2024/01/06 04:09:10;;;;;;;0.82;0.82;;;;;;;;;;5063914;28;20013;-77
2024/01/06 04:11:36;;;;;;;0.40;0.40;;;;;;;;;;5057563;28;20455;-77
2024/01/06 04:14:01;;;;;;;0.77;0.75;;;;;;;;;;5062213;28;20035;-77
2024/01/06 04:16:29;;;;;;;2.10;0.57;;;;;;;;;;5052420;28;20060;-77
2024/01/06 04:18:55;;;;;;;0.50;0.50;;;;;;;;;;5070471;28;20029;-77
2024/01/06 04:21:20;;;;;;;0.55;0.55;;;;;;;;;;5062198;28;20501;-77
2024/01/06 04:23:45;;;;;;;1.23;0.77;;;;;;;;;;5061343;28;20033;-78
2024/01/06 04:26:12;;;;;;;1.55;1.02;;;;;;;;;;5066951;28;20101;-79
2024/01/06 04:28:37;;;;;;;1.38;0.95;;;;;;;;;;5060727;28;20012;-78
2024/01/06 04:31:03;;;;;;;2.63;1.25;;;;;;;;;;5074328;28;20024;-78
2024/01/06 04:33:28;;;;;;;1.38;0.85;;;;;;;;;;5059965;28;20029;-78
2024/01/06 04:35:53;;;;;;;1.15;0.68;;;;;;;;;;5071808;28;20040;-80
2024/01/06 04:38:19;;;;;;;2.38;0.90;;;;;;;;;;5065774;28;20063;-77
2024/01/06 04:40:44;;;;;;;0.60;0.60;;;;;;;;;;5068866;28;20025;-77
2024/01/06 04:43:09;;;;;;;2.92;0.88;;;;;;;;;;5067099;28;20039;-77
2024/01/06 04:45:37;;;;;;;0.93;0.80;;;;;;;;;;5065987;28;20173;-77
2024/01/06 04:48:03;;;;;;;2.58;0.70;;;;;;;;;;5069536;28;20025;-77
2024/01/06 04:50:28;;;;;;;1.30;0.93;;;;;;;;;;5070325;28;20070;-77
2024/01/06 04:52:53;;;;;;;0.75;0.75;;;;;;;;;;5063905;28;20021;-76
2024/01/06 04:55:19;;;;;;;0.52;0.50;;;;;;;;;;5084129;28;20025;-76
2024/01/06 04:57:44;;;;;;;0.60;0.60;;;;;;;;;;5058239;28;20532;-76
2024/01/06 05:00:10;;;;;;;1.98;1.02;;;;;;;;;;5069622;28;20679;-77
2024/01/06 05:02:36;;;;;;;0.65;0.65;;;;;;;;;;5056907;28;20522;-77
2024/01/06 05:05:01;;;;;;;0.30;0.30;;;;;;;;;;5064797;28;20035;-77
2024/01/06 05:07:26;;;;;;;3.05;1.27;;;;;;;;;;5070363;28;20039;-77
2024/01/06 05:09:51;;;;;;;1.17;0.95;;;;;;;;;;5060656;28;20016;-77
2024/01/06 05:12:17;;;;;;;0.75;0.75;;;;;;;;;;5064001;28;20459;-77
2024/01/06 05:14:42;;;;;;;3.30;0.82;;;;;;;;;;5066215;28;20036;-76
2024/01/06 05:17:08;;;;;;;0.63;0.63;;;;;;;;;;5072235;28;20024;-77
2024/01/06 05:19:34;;;;;;;1.50;0.82;;;;;;;;;;5064412;28;20024;-77
2024/01/06 05:21:59;;;;;;;0.68;0.68;;;;;;;;;;5048872;28;20035;-77
2024/01/06 05:24:25;;;;;;;5.78;1.10;;;;;;;;;;5067991;28;20513;-78
2024/01/06 05:26:50;;;;;;;1.55;0.75;;;;;;;;;;5058659;28;20392;-76
2024/01/06 05:29:15;;;;;;;0.80;0.80;;;;;;;;;;5084687;28;20032;-77
2024/01/06 05:31:41;;;;;;;0.52;0.52;;;;;;;;;;5068838;28;20031;-76
2024/01/06 05:34:06;;;;;;;2.30;0.63;;;;;;;;;;5082306;28;20025;-76
2024/01/06 05:36:32;;;;;;;1.08;0.70;;;;;;;;;;5054600;28;20021;-77
2024/01/06 05:38:57;;;;;;;5.95;1.13;;;;;;;;;;5060119;28;20065;-77
2024/01/06 05:41:23;;;;;;;0.80;0.80;;;;;;;;;;5073731;28;20032;-76
2024/01/06 05:43:48;;;;;;;1.88;1.05;;;;;;;;;;5063689;28;20079;-77
2024/01/06 05:46:21;;;;;;;1.30;1.20;;;;;;;;;;5068366;28;20029;-77
2024/01/06 05:48:47;;;;;;;3.15;1.17;;;;;;;;;;5068077;28;20037;-77
2024/01/06 05:51:12;;;;;;;3.63;1.00;;;;;;;;;;5071468;28;20020;-78
2024/01/06 05:53:37;;;;;;;0.80;0.80;;;;;;;;;;5064935;28;20390;-78
2024/01/06 05:56:03;;;;;;;4.28;0.88;;;;;;;;;;5055640;28;20103;-78
2024/01/06 05:58:28;;;;;;;0.95;0.80;;;;;;;;;;5045750;28;20028;-78
2024/01/06 06:00:53;;;;;;;2.95;0.80;;;;;;;;;;5069777;28;20020;-77
2024/01/06 06:03:19;;;;;;;1.65;0.98;;;;;;;;;;5061425;28;20045;-78
2024/01/06 06:05:44;;;;;;;0.70;0.70;;;;;;;;;;5057648;28;20024;-77
2024/01/06 06:08:10;;;;;;;1.30;0.90;;;;;;;;;;5083829;28;20028;-77
2024/01/06 06:10:51;;;;;;;2.25;0.85;;;;;;;;;;5059518;28;20021;-77
2024/01/06 06:13:17;;;;;;;0.60;0.60;;;;;;;;;;5065796;28;20035;-77
2024/01/06 06:15:42;;;;;;;1.17;1.08;;;;;;;;;;5082760;28;20025;-77
2024/01/06 06:18:07;;;;;;;0.65;0.65;;;;;;;;;;5066374;28;20677;-76
2024/01/06 06:20:33;;;;;;;2.60;0.93;;;;;;;;;;5077854;28;20115;-77
2024/01/06 06:22:58;;;;;;;1.88;1.23;;;;;;;;;;5074124;28;20066;-77
2024/01/06 06:25:23;;;;;;;4.00;2.22;;;;;;;;;;5062655;28;20420;-76
2024/01/06 06:27:48;;;;;;;1.20;1.10;;;;;;;;;;5060638;28;20035;-77
2024/01/06 06:30:14;;;;;;;0.90;0.90;;;;;;;;;;5073546;28;20108;-77
2024/01/06 06:32:39;;;;;;;1.88;0.80;;;;;;;;;;5082629;28;20032;-77
2024/01/06 06:35:05;;;;;;;1.33;1.00;;;;;;;;;;5073125;28;20035;-77
2024/01/06 06:37:31;;;;;;;1.08;0.95;;;;;;;;;;5078498;28;20177;-77
2024/01/06 06:39:56;;;;;;;0.80;0.80;;;;;;;;;;5071217;28;20017;-77
2024/01/06 06:42:22;;;;;;;1.42;1.10;;;;;;;;;;5052147;28;20433;-77
2024/01/06 06:44:47;;;;;;;0.90;0.90;;;;;;;;;;5057602;28;20075;-77
2024/01/06 06:47:12;;;;;;;2.20;1.35;;;;;;;;;;5051498;28;20378;-76
2024/01/06 06:49:38;;;;;;;0.95;0.95;;;;;;;;;;5061490;28;20032;-77
2024/01/06 06:52:04;;;;;;;1.88;1.30;;;;;;;;;;5079195;28;20107;-77
2024/01/06 06:54:29;;;;;;;3.95;1.48;;;;;;;;;;5078854;28;20025;-78
2024/01/06 06:56:54;;;;;;;1.98;1.20;;;;;;;;;;5068542;28;20390;-77
2024/01/06 06:59:20;;;;;;;1.85;0.95;;;;;;;;;;5064489;28;20058;-77
2024/01/06 07:01:45;;;;;;;0.95;0.93;;;;;;;;;;5042052;28;20081;-77
2024/01/06 07:04:10;;;;;;;3.15;1.45;;;;;;;;;;5046945;28;20581;-76
2024/01/06 07:06:36;;;;;;;1.10;1.00;;;;;;;;;;5068918;28;20027;-77
2024/01/06 07:09:02;;;;;;;1.65;1.55;;;;;;;;;;5067960;28;20027;-77
2024/01/06 07:11:27;;;;;;;8.05;1.20;;;;;;;;;;5061546;28;20343;-77
2024/01/06 07:13:53;;;;;;;0.88;0.88;;;;;;;;;;5077729;28;20048;-77
2024/01/06 07:16:19;;;;;;;1.30;1.15;;;;;;;;;;5057228;28;20082;-77
2024/01/06 07:18:44;;;;;;;2.92;1.40;;;;;;;;;;5039876;28;20402;-77
2024/01/06 07:21:09;;;;;;;0.90;0.90;;;;;;;;;;5083469;28;20035;-79
2024/01/06 07:23:35;;;;;;;0.80;0.80;;;;;;;;;;5072942;28;20437;-76
2024/01/06 07:26:00;;;;;;;1.40;1.00;;;;;;;;;;5058544;28;20415;-77
2024/01/06 07:28:26;;;;;;;0.80;0.80;;;;;;;;;;5059623;28;20043;-76
2024/01/06 07:30:52;;;;;;;0.82;0.80;;;;;;;;;;5065653;28;20119;-78
2024/01/06 07:33:17;;;;;;;0.93;0.93;;;;;;;;;;5062507;28;20434;-78
2024/01/06 07:35:43;;;;;;;0.85;0.85;;;;;;;;;;5062050;28;20108;-77
2024/01/06 07:38:12;;;;;;;0.90;0.90;;;;;;;;;;5081950;28;20028;-77
2024/01/06 07:40:37;;;;;;;0.80;0.80;;;;;;;;;;5063230;28;20025;-77
2024/01/06 07:43:04;;;;;;;0.98;0.98;;;;;;;;;;5067992;28;21309;-77
2024/01/06 07:45:30;;;;;;;0.82;0.82;;;;;;;;;;5068881;28;20107;-77
2024/01/06 07:47:55;;;;;;;0.80;0.80;;;;;;;;;;5054677;28;20455;-78
2024/01/06 07:50:20;;;;;;;1.70;0.90;;;;;;;;;;5062505;28;20478;-77
2024/01/06 07:52:45;;;;;;;2.92;1.67;;;;;;;;;;5078245;28;20038;-77
2024/01/06 07:55:11;;;;;;;3.60;0.90;;;;;;;;;;5052213;28;20064;-77
2024/01/06 07:57:36;;;;;;;0.80;0.80;;;;;;;;;;5069906;28;20027;-77
2024/01/06 08:00:02;;;;;;;1.25;1.05;;;;;;;;;;5060901;28;20525;-77
2024/01/06 08:02:27;;;;;;;3.70;1.33;;;;;;;;;;5074954;28;20028;-77
2024/01/06 08:04:55;;;;;;;1.20;1.10;;;;;;;;;;5065032;28;20029;-77
2024/01/06 08:07:20;;;;;;;1.13;1.08;;;;;;;;;;5067558;28;20082;-77
2024/01/06 08:09:46;;;;;;;2.17;0.95;;;;;;;;;;5064449;28;20032;-77
2024/01/06 08:12:11;;;;;;;3.38;1.10;;;;;;;;;;5074161;28;20398;-77
2024/01/06 08:14:37;;;;;;;1.10;0.77;;;;;;;;;;5070381;28;20032;-77
2024/01/06 08:17:02;;;;;;;1.20;1.02;;;;;;;;;;5055668;28;20110;-77
2024/01/06 08:19:30;;;;;;;4.38;1.48;;;;;;;;;;5057769;28;20033;-77
2024/01/06 08:21:55;;;;;;;1.08;1.08;;;;;;;;;;5059670;28;20028;-79
2024/01/06 08:24:21;;;;;;;1.70;1.05;;;;;;;;;;5072244;28;20030;-76
2024/01/06 08:26:47;;;;;;;0.90;0.90;;;;;;;;;;5081756;28;21146;-77
2024/01/06 08:29:13;;;;;;;1.20;1.10;;;;;;;;;;5078328;28;20491;-78
2024/01/06 08:31:39;;;;;;;2.70;1.23;;;;;;;;;;5069030;28;20505;-77
2024/01/06 08:34:07;;;;;;;1.77;1.13;;;;;;;;;;5056901;28;20025;-77
2024/01/06 08:36:32;;;;;;;2.72;1.08;;;;;;;;;;5067495;28;20029;-77
2024/01/06 08:38:57;;;;;;;1.25;1.15;;;;;;;;;;5075788;28;20074;-77
2024/01/06 08:41:23;;;;;;;2.08;1.20;;;;;;;;;;5084737;28;20028;-77
2024/01/06 08:43:48;;;;;;;1.67;1.15;;;;;;;;;;5073315;28;20482;-77
2024/01/06 08:46:13;;;;;;;1.17;1.05;;;;;;;;;;5080632;28;20109;-77
2024/01/06 08:48:39;;;;;;;1.75;1.27;;;;;;;;;;5081574;28;20029;-78
2024/01/06 08:51:05;;;;;;;0.80;0.80;;;;;;;;;;5068777;28;20028;-77
2024/01/06 08:53:31;;;;;;;1.35;1.10;;;;;;;;;;5076836;28;20031;-77
2024/01/06 08:55:56;;;;;;;1.25;1.13;;;;;;;;;;5062553;28;20023;-77
2024/01/06 08:58:22;;;;;;;1.45;1.13;;;;;;;;;;5079147;28;20028;-77
2024/01/06 09:00:47;;;;;;;1.08;1.08;;;;;;;;;;5075737;28;20036;-77
2024/01/06 09:03:12;;;;;;;1.08;1.05;;;;;;;;;;5065545;28;20035;-77
2024/01/06 09:05:38;;;;;;;1.60;1.45;;;;;;;;;;5060945;28;20024;-77
2024/01/06 09:08:04;;;;;;;1.52;1.27;;;;;;;;;;5036610;28;20025;-76
2024/01/06 09:10:29;;;;;;;1.08;1.08;;;;;;;;;;5057061;28;20389;-76
2024/01/06 09:12:55;;;;;;;1.05;0.95;;;;;;;;;;5058348;28;20025;-79
2024/01/06 09:15:20;;;;;;;1.13;1.02;;;;;;;;;;5058196;28;20029;-78
2024/01/06 09:17:46;;;;;;;0.68;0.68;;;;;;;;;;5049748;28;20131;-77
2024/01/06 09:20:11;;;;;;;1.35;1.30;;;;;;;;;;5055672;28;20024;-78
2024/01/06 09:22:36;;;;;;;0.80;0.80;;;;;;;;;;5055115;28;20085;-79
2024/01/06 09:25:02;;;;;;;2.03;1.30;;;;;;;;;;5083521;28;20037;-78
2024/01/06 09:27:27;;;;;;;0.77;0.77;;;;;;;;;;5072432;28;20025;-78
2024/01/06 09:29:52;;;;;;;1.73;1.10;;;;;;;;;;5073487;28;20032;-78
2024/01/06 09:32:18;;;;;;;0.93;0.90;;;;;;;;;;5082870;28;20035;-78
2024/01/06 09:34:43;;;;;;;0.82;0.82;;;;;;;;;;5067275;28;20040;-78
2024/01/06 09:37:09;;;;;;;1.45;1.30;;;;;;;;;;5069942;28;20028;-78
2024/01/06 09:39:34;;;;;;;1.05;0.98;;;;;;;;;;5057016;28;20034;-79
2024/01/06 09:41:59;;;;;;;1.25;1.15;;;;;;;;;;5064540;28;20032;-78
2024/01/06 09:44:25;;;;;;;1.15;1.13;;;;;;;;;;5071973;28;20060;-78
2024/01/06 09:46:50;;;;;;;1.23;1.10;;;;;;;;;;5066554;28;20032;-78
2024/01/06 09:49:23;;;;;;;1.42;1.33;;;;;;;;;;5065369;28;20182;-77
2024/01/06 09:51:52;;;;;;;0.95;0.95;;;;;;;;;;5054834;28;20044;-77
2024/01/06 09:54:22;;;;;;;1.20;1.10;;;;;;;;;;5062991;28;20483;-80
2024/01/06 09:56:49;;;;;;;4.97;1.52;;;;;;;;;;5072911;28;20031;-77
2024/01/06 09:59:15;;;;;;;1.55;1.45;;;;;;;;;;5074886;28;20107;-78
2024/01/06 10:01:41;;;;;;;2.03;1.85;;;;;;;;;;5087923;28;20055;-79
2024/01/06 10:04:06;;;;;;;1.67;1.58;;;;;;;;;;5071813;28;20029;-77
2024/01/06 10:06:32;;;;;;;1.73;1.63;;;;;;;;;;5070272;28;20020;-77
2024/01/06 10:08:58;;;;;;;3.38;1.30;;;;;;;;;;5084942;28;20021;-77
2024/01/06 10:11:23;;;;;;;2.13;1.27;;;;;;;;;;5081988;28;20047;-78
2024/01/06 10:13:54;;;;;;;0.77;0.65;;;;;;;;;;5087453;28;20050;-78
2024/01/06 10:16:19;;;;;;;0.90;0.90;;;;;;;;;;5084559;28;20058;-78
2024/01/06 10:18:45;;;;;;;4.22;1.40;;;;;;;;;;5100358;28;20425;-77
2024/01/06 10:21:10;;;;;;;0.80;0.80;;;;;;;;;;5089336;28;20044;-78
2024/01/06 10:23:36;;;;;;;0.98;0.85;;;;;;;;;;5079057;28;20474;-78
2024/01/06 10:26:02;;;;;;;1.20;1.10;;;;;;;;;;5072454;28;20433;-78
2024/01/06 10:28:28;;;;;;;0.75;0.75;;;;;;;;;;5084386;28;20059;-78
2024/01/06 10:30:55;;;;;;;1.25;1.02;;;;;;;;;;5075340;28;20051;-78
2024/01/06 10:33:25;;;;;;;1.02;0.90;;;;;;;;;;5084467;28;20032;-79
2024/01/06 10:35:50;;;;;;;0.85;0.85;;;;;;;;;;5079467;28;20103;-78
2024/01/06 10:38:16;;;;;;;1.40;1.13;;;;;;;;;;5087559;28;20068;-78
2024/01/06 10:40:57;;;;;;;1.55;1.10;;;;;;;;;;5071090;28;20017;-78
2024/01/06 10:43:30;;;;;;;0.80;0.80;;;;;;;;;;5063756;28;20043;-78
2024/01/06 10:45:57;;;;;;;0.90;0.82;;;;;;;;;;5073856;28;20417;-78
2024/01/06 10:48:25;;;;;;;1.20;1.10;;;;;;;;;;5077075;28;20427;-78
2024/01/06 10:50:51;;;;;;;1.77;1.67;;;;;;;;;;5071915;28;20718;-78
2024/01/06 10:53:17;;;;;;;2.00;1.70;;;;;;;;;;5062562;28;20095;-78
2024/01/06 10:55:44;;;;;;;3.63;0.82;;;;;;;;;;5068328;28;20028;-78
2024/01/06 10:58:10;;;;;;;1.75;1.40;;;;;;;;;;5061786;28;20051;-78
2024/01/06 11:00:36;;;;;;;1.27;1.20;;;;;;;;;;5053453;28;20074;-78
2024/01/06 11:03:03;;;;;;;1.92;1.80;;;;;;;;;;5082255;28;20058;-78
2024/01/06 11:05:28;;;;;;;7.35;4.35;;;;;;;;;;5075288;28;20039;-78
2024/01/06 11:07:59;;;;;;;1.15;1.15;;;;;;;;;;5084105;28;20041;-78
2024/01/06 11:10:25;;;;;;;0.98;0.98;;;;;;;;;;5036495;28;20079;-78
2024/01/06 11:13:12;;;;;;;4.72;2.85;;;;;;;;;;5057631;28;20029;-78
2024/01/06 11:15:54;;;;;;;1.08;1.08;;;;;;;;;;5055888;28;20021;-77
2024/01/06 11:18:40;;;;;;;15.38;7.90;;;;;;;;;;5054675;28;20017;-78
2024/01/06 11:21:17;;;;;;;5.68;4.28;;;;;;;;;;5078375;28;20045;-77
2024/01/06 11:23:42;;;;;;;3.63;0.98;;;;;;;;;;5074175;28;20020;-77
2024/01/06 11:26:07;;;;;;;2.40;1.02;;;;;;;;;;5068483;28;20482;-78
2024/01/06 11:28:46;;;;;;;1.33;1.23;;;;;;;;;;5064765;28;20490;-78
2024/01/06 11:31:12;;;;;;;1.55;1.42;;;;;;;;;;5072004;28;20047;-78
2024/01/06 11:33:44;;;;;;;1.05;1.05;;;;;;;;;;5080621;28;20042;-78
2024/01/06 11:36:10;;;;;;;7.47;3.80;;;;;;;;;;5079544;28;20036;-78
2024/01/06 11:38:39;;;;;;;6.30;3.35;;;;;;;;;;5054626;28;20052;-79
2024/01/06 11:41:11;;;;;;;2.67;1.33;;;;;;;;;;5066068;28;20043;-78
2024/01/06 11:43:39;;;;;;;6.80;1.75;;;;;;;;;;5060288;28;20017;-78
2024/01/06 11:46:06;;;;;;;11.90;5.07;;;;;;;;;;5064537;28;20046;-79
2024/01/06 11:48:32;;;;;;;11.63;4.65;;;;;;;;;;5075129;28;20024;-78
2024/01/06 11:50:58;;;;;;;14.48;5.03;;;;;;;;;;5067170;28;20439;-78
2024/01/06 11:53:27;;;;;;;4.05;2.80;;;;;;;;;;5084331;28;20028;-78
2024/01/06 11:55:52;;;;;;;1.80;1.70;;;;;;;;;;5080591;28;20130;-78
2024/01/06 11:58:18;;;;;;;1.70;1.60;;;;;;;;;;5059999;28;20108;-78
2024/01/06 12:00:43;;;;;;;2.85;1.92;;;;;;;;;;5075872;28;20021;-79
2024/01/06 12:03:09;;;;;;;2.10;1.80;;;;;;;;;;5059597;28;20045;-78
2024/01/06 12:05:35;;;;;;;2.33;1.60;;;;;;;;;;5059742;28;20021;-78
2024/01/06 12:08:06;;;;;;;1.95;1.80;;;;;;;;;;5066102;28;20040;-77
2024/01/06 12:10:33;;;;;;;0.90;0.90;;;;;;;;;;5071211;28;20029;-77
2024/01/06 12:13:08;;;;;;;3.15;2.17;;;;;;;;;;5069992;28;20027;-77
2024/01/06 12:15:34;;;;;;;1.42;1.33;;;;;;;;;;5076240;28;20067;-78
2024/01/06 12:18:03;;;;;;;2.75;2.30;;;;;;;;;;5066191;28;20035;-78
2024/01/06 12:20:28;;;;;;;3.50;1.83;;;;;;;;;;5073187;28;20032;-79
2024/01/06 12:22:55;;;;;;;5.32;1.80;;;;;;;;;;5071023;28;20416;-78
2024/01/06 12:25:25;;;;;;;3.92;3.05;;;;;;;;;;5066917;28;20031;-79
2024/01/06 12:27:50;;;;;;;1.45;1.35;;;;;;;;;;5068927;28;20020;-78
2024/01/06 12:30:21;;;;;;;2.95;2.65;;;;;;;;;;5085929;28;20368;-77
2024/01/06 12:32:54;;;;;;;2.78;2.30;;;;;;;;;;5076377;28;20385;-78
2024/01/06 12:35:21;;;;;;;2.72;1.80;;;;;;;;;;5068413;28;20055;-81
2024/01/06 12:37:46;;;;;;;2.15;1.08;;;;;;;;;;5069224;28;20036;-80
2024/01/06 12:40:13;;;;;;;5.68;2.28;;;;;;;;;;5069166;28;20029;-77
2024/01/06 12:42:38;;;;;;;2.42;1.73;;;;;;;;;;5086585;28;20478;-77
2024/01/06 12:45:06;;;;;;;2.95;2.20;;;;;;;;;;5077437;28;20033;-80
2024/01/06 12:47:31;;;;;;;2.00;1.80;;;;;;;;;;5068725;28;20033;-80
2024/01/06 12:49:59;;;;;;;1.58;1.48;;;;;;;;;;5057371;28;20402;-80
2024/01/06 12:52:25;;;;;;;1.15;1.13;;;;;;;;;;5083489;28;20032;-78
2024/01/06 12:54:50;;;;;;;2.10;1.88;;;;;;;;;;5073406;28;20025;-79
2024/01/06 12:57:16;;;;;;;1.30;1.25;;;;;;;;;;5078494;28;20067;-79
2024/01/06 12:59:41;;;;;;;2.78;1.77;;;;;;;;;;5076077;28;20040;-79
2024/01/06 13:02:07;;;;;;;2.00;1.65;;;;;;;;;;5068304;28;20077;-79
2024/01/06 13:04:32;;;;;;;1.50;1.40;;;;;;;;;;5056405;28;20036;-79
2024/01/06 13:06:58;;;;;;;2.63;2.03;;;;;;;;;;5065629;28;20089;-79
2024/01/06 13:09:23;;;;;;;1.15;1.15;;;;;;;;;;5097373;28;20030;-78
2024/01/06 13:11:50;;;;;;;1.60;1.50;;;;;;;;;;5068039;28;20028;-77
2024/01/06 13:14:16;;;;;;;2.15;1.33;;;;;;;;;;5061478;28;20031;-77
2024/01/06 13:16:41;;;;;;;1.48;1.38;;;;;;;;;;5062728;28;20030;-77
2024/01/06 13:19:06;;;;;;;2.35;1.67;;;;;;;;;;5060116;28;20019;-77
2024/01/06 13:21:32;;;;;;;1.90;1.75;;;;;;;;;;5059864;28;20051;-77
2024/01/06 13:24:01;;;;;;;5.47;1.38;;;;;;;;;;5070168;28;20112;-77
2024/01/06 13:26:27;;;;;;;3.42;2.42;;;;;;;;;;5089763;28;20107;-77
2024/01/06 13:28:53;;;;;;;3.05;2.33;;;;;;;;;;5079254;28;20020;-77
2024/01/06 13:31:18;;;;;;;1.83;1.70;;;;;;;;;;5074723;28;20028;-77
2024/01/06 13:33:44;;;;;;;1.58;1.48;;;;;;;;;;5062296;28;20475;-77
2024/01/06 13:36:09;;;;;;;2.45;1.85;;;;;;;;;;5078262;28;20381;-76
2024/01/06 13:38:35;;;;;;;3.72;2.88;;;;;;;;;;5063754;28;20075;-77
2024/01/06 13:41:00;;;;;;;3.00;2.47;;;;;;;;;;5057810;28;20491;-77
2024/01/06 13:43:25;;;;;;;2.35;2.03;;;;;;;;;;5075742;28;20035;-77
2024/01/06 13:45:51;;;;;;;1.38;1.30;;;;;;;;;;5065577;28;20500;-77
2024/01/06 13:48:16;;;;;;;1.88;1.75;;;;;;;;;;5071140;28;20486;-76
2024/01/06 13:50:43;;;;;;;1.35;1.20;;;;;;;;;;5065907;28;20351;-77
2024/01/06 13:53:08;;;;;;;3.85;2.58;;;;;;;;;;5063242;28;20099;-77
2024/01/06 13:55:33;;;;;;;2.85;2.17;;;;;;;;;;5052882;28;20108;-77
2024/01/06 13:57:59;;;;;;;3.80;2.20;;;;;;;;;;5077568;28;20024;-76
2024/01/06 14:00:25;;;;;;;2.67;2.10;;;;;;;;;;5058371;28;20550;-77
2024/01/06 14:02:51;;;;;;;2.65;2.45;;;;;;;;;;5055284;28;20033;-76
2024/01/06 14:05:19;;;;;;;6.88;2.63;;;;;;;;;;5051589;28;20451;-76
2024/01/06 14:07:45;;;;;;;3.65;2.70;;;;;;;;;;5061603;28;20739;-76
2024/01/06 14:10:15;;;;;;;2.15;1.75;;;;;;;;;;5067112;28;20028;-77
2024/01/06 14:12:40;;;;;;;1.60;1.50;;;;;;;;;;5073856;28;20027;-77
2024/01/06 14:15:06;;;;;;;3.05;1.98;;;;;;;;;;5063729;28;20028;-77
2024/01/06 14:17:32;;;;;;;4.63;2.72;;;;;;;;;;5058622;28;20027;-76
2024/01/06 14:19:57;;;;;;;1.40;1.30;;;;;;;;;;5080874;28;20019;-76
2024/01/06 14:22:23;;;;;;;5.43;2.22;;;;;;;;;;5078570;28;20032;-77
2024/01/06 14:24:52;;;;;;;2.95;1.90;;;;;;;;;;5070441;28;20024;-76
2024/01/06 14:27:17;;;;;;;10.13;3.53;;;;;;;;;;5102027;22;20066;-87
2024/01/06 14:29:43;;;;;;;2.78;2.53;;;;;;;;;;5067043;28;20017;-87
2024/01/06 14:32:08;;;;;;;6.32;2.25;;;;;;;;;;5088821;28;20020;-86
2024/01/06 14:34:34;;;;;;;2.50;2.20;;;;;;;;;;5075439;28;20020;-88
2024/01/06 14:36:59;;;;;;;2.92;2.08;;;;;;;;;;5071206;28;20023;-85